createdAt,value
2022-10-23T00:01:46.784Z,101201.06
2022-10-23T00:04:22.086Z,101201.31
2022-10-23T00:06:50.743Z,101199.69
2022-10-23T00:09:24.452Z,101190.22
2022-10-23T00:11:53.238Z,101186.72
2022-10-23T00:14:27.370Z,101202.59
2022-10-23T00:16:54.671Z,101197.06
2022-10-23T00:19:21.882Z,101196.91
2022-10-23T00:21:49.328Z,101196.66
2022-10-23T00:24:16.635Z,101195.72
2022-10-23T00:26:43.887Z,101193.94
2022-10-23T00:29:11.990Z,101191.91
2022-10-23T00:31:39.717Z,101189.28
2022-10-23T00:34:08.561Z,101189.19
2022-10-23T00:36:38.009Z,101201.47
2022-10-23T00:39:06.297Z,101200.63
2022-10-23T00:41:34.560Z,101192.91
2022-10-23T00:44:31.792Z,101192.06
2022-10-23T00:47:00.275Z,101193.94
2022-10-23T00:49:28.342Z,101191.47
2022-10-23T00:52:07.278Z,101188.84
2022-10-23T00:54:41.075Z,101184.53
2022-10-23T00:57:15.026Z,101172.97
2022-10-23T00:59:42.982Z,101179.09
2022-10-23T01:02:10.708Z,101187.00
2022-10-23T01:04:38.386Z,101180.97
2022-10-23T01:07:19.809Z,101180.13
2022-10-23T01:10:13.184Z,101196.81
2022-10-23T01:13:14.274Z,101194.19
2022-10-23T01:16:05.289Z,101172.31
2022-10-23T01:18:59.143Z,101182.84
2022-10-23T01:21:51.219Z,101172.41
2022-10-23T01:24:57.814Z,101170.63
2022-10-23T01:27:35.580Z,101171.56
2022-10-23T01:30:10.353Z,101163.69
2022-10-23T01:33:16.176Z,101162.63
2022-10-23T01:36:06.096Z,101153.09
2022-10-23T01:38:54.660Z,101163.69
2022-10-23T01:41:44.236Z,101166.56
2022-10-23T01:44:51.758Z,101162.25
2022-10-23T01:47:28.928Z,101164.97
2022-10-23T01:50:13.255Z,101156.22
2022-10-23T01:52:43.097Z,101157.34
2022-10-23T01:55:13.442Z,101153.19
2022-10-23T01:57:44.711Z,101149.88
2022-10-23T02:00:18.713Z,101148.34
2022-10-23T02:02:55.314Z,101139.72
2022-10-23T02:05:31.643Z,101132.94
2022-10-23T02:08:01.232Z,101129.72
2022-10-23T02:11:16.703Z,101131.78
2022-10-23T02:14:18.990Z,101129.66
2022-10-23T02:17:24.665Z,101131.66
2022-10-23T02:20:35.894Z,101126.66
2022-10-23T02:23:36.062Z,101124.25
2022-10-23T02:26:19.476Z,101136.56
2022-10-23T02:29:25.934Z,101128.00
2022-10-23T02:31:53.440Z,101120.75
2022-10-23T02:34:20.750Z,101132.78
2022-10-23T02:36:51.009Z,101130.91
2022-10-23T02:39:27.464Z,101121.88
2022-10-23T02:42:22.074Z,101123.44
2022-10-23T02:45:36.150Z,101117.19
2022-10-23T02:48:38.988Z,101099.06
2022-10-23T02:52:02.879Z,101102.59
2022-10-23T02:55:04.046Z,101087.72
2022-10-23T02:58:05.182Z,101071.97
2022-10-23T03:00:37.577Z,101069.50
2022-10-23T03:03:27.768Z,101054.66
2022-10-23T03:05:55.840Z,101054.75
2022-10-23T03:08:23.258Z,101054.75
2022-10-23T03:10:51.389Z,101053.91
2022-10-23T03:13:20.554Z,101052.22
2022-10-23T03:15:50.781Z,101050.34
2022-10-23T03:18:18.041Z,101046.69
2022-10-23T03:20:49.294Z,101035.28
2022-10-23T03:23:16.584Z,101030.84
2022-10-23T03:25:43.919Z,101041.09
2022-10-23T03:28:24.472Z,101028.72
2022-10-23T03:30:52.408Z,101025.81
2022-10-23T03:33:19.622Z,101025.75
2022-10-23T03:35:49.620Z,101019.56
2022-10-23T03:38:17.266Z,101015.06
2022-10-23T03:40:44.711Z,101022.09
2022-10-23T03:43:13.906Z,101014.97
2022-10-23T03:45:41.430Z,101008.78
2022-10-23T03:48:08.812Z,101008.78
2022-10-23T03:50:36.790Z,101001.81
2022-10-23T03:53:05.806Z,100993.94
2022-10-23T03:55:34.779Z,100991.41
2022-10-23T03:58:02.057Z,101006.34
2022-10-23T04:00:29.409Z,101002.78
2022-10-23T04:02:56.653Z,100998.38
2022-10-23T04:05:23.844Z,100992.84
2022-10-23T04:07:55.395Z,100995.56
2022-10-23T04:10:25.538Z,100985.81
2022-10-23T04:12:52.851Z,100981.41
2022-10-23T04:15:20.148Z,100977.72
2022-10-23T04:17:50.119Z,100970.72
2022-10-23T04:20:20.505Z,100967.22
2022-10-23T04:22:50.668Z,100956.81
2022-10-23T04:25:20.233Z,100960.38
2022-10-23T04:27:48.570Z,100951.66
2022-10-23T04:30:15.906Z,100960.38
2022-10-23T04:32:45.637Z,100962.25
2022-10-23T04:35:12.816Z,100963.09
2022-10-23T04:37:40.144Z,100953.25
2022-10-23T04:40:09.037Z,100954.88
2022-10-23T04:42:38.172Z,100952.16
2022-10-23T04:45:06.668Z,100953.72
2022-10-23T04:47:34.810Z,100953.63
2022-10-23T04:50:04.821Z,100952.53
2022-10-23T04:53:10.577Z,100949.72
2022-10-23T04:56:07.508Z,100946.91
2022-10-23T04:58:51.454Z,100949.53
2022-10-23T05:01:19.299Z,100954.69
2022-10-23T05:03:48.057Z,100942.22
2022-10-23T05:06:15.811Z,100941.28
2022-10-23T05:09:12.309Z,100946.34
2022-10-23T05:12:02.413Z,100938.56
2022-10-23T05:14:30.418Z,100938.66
2022-10-23T05:17:16.262Z,100940.34
2022-10-23T05:19:56.281Z,100937.72
2022-10-23T05:22:32.077Z,100929.94
2022-10-23T05:25:01.910Z,100923.81
2022-10-23T05:27:31.990Z,100928.88
2022-10-23T05:29:59.272Z,100930.66
2022-10-23T05:32:32.228Z,100921.75
2022-10-23T05:35:03.888Z,100919.13
2022-10-23T05:37:31.752Z,100921.00
2022-10-23T05:40:12.740Z,100919.97
2022-10-23T05:42:41.931Z,100922.59
2022-10-23T05:45:11.989Z,100911.25
2022-10-23T05:48:05.844Z,100918.28
2022-10-23T05:51:11.693Z,100911.34
2022-10-23T05:54:02.133Z,100914.81
2022-10-23T05:56:44.123Z,100912.09
2022-10-23T05:59:22.961Z,100908.53
2022-10-23T06:02:00.533Z,100910.19
2022-10-23T06:04:42.790Z,100906.72
2022-10-23T06:07:31.241Z,100898.75
2022-10-23T06:10:06.291Z,100902.31
2022-10-23T06:12:36.712Z,100891.06
2022-10-23T06:15:06.200Z,100891.97
2022-10-23T06:17:54.191Z,100885.91
2022-10-23T06:20:25.287Z,100886.63
2022-10-23T06:23:07.887Z,100881.28
2022-10-23T06:26:00.990Z,100871.72
2022-10-23T06:28:39.305Z,100880.44
2022-10-23T06:31:12.507Z,100883.81
2022-10-23T06:33:41.191Z,100887.22
2022-10-23T06:36:10.702Z,100883.63
2022-10-23T06:38:40.774Z,100877.44
2022-10-23T06:41:16.767Z,100876.22
2022-10-23T06:43:51.022Z,100882.22
2022-10-23T06:46:41.246Z,100869.06
2022-10-23T06:49:28.426Z,100864.66
2022-10-23T06:51:58.757Z,100864.47
2022-10-23T06:54:25.951Z,100867.84
2022-10-23T06:57:11.513Z,100857.16
2022-10-23T06:59:44.028Z,100850.72
2022-10-23T07:02:11.401Z,100852.44
2022-10-23T07:04:41.214Z,100844.53
2022-10-23T07:07:14.521Z,100849.72
2022-10-23T07:09:50.684Z,100846.88
2022-10-23T07:12:20.604Z,100853.75
2022-10-23T07:14:53.704Z,100854.66
2022-10-23T07:17:21.925Z,100850.06
2022-10-23T07:19:49.243Z,100854.19
2022-10-23T07:22:16.606Z,100855.69
2022-10-23T07:25:08.659Z,100851.69
2022-10-23T07:27:39.465Z,100853.69
2022-10-23T07:30:10.111Z,100843.91
2022-10-23T07:32:46.503Z,100849.94
2022-10-23T07:35:34.408Z,100837.41
2022-10-23T07:38:08.239Z,100841.53
2022-10-23T07:40:39.066Z,100841.41
2022-10-23T07:43:09.348Z,100829.84
2022-10-23T07:45:36.836Z,100827.88
2022-10-23T07:48:12.740Z,100834.63
2022-10-23T07:51:08.040Z,100823.25
2022-10-23T07:53:39.435Z,100821.41
2022-10-23T07:56:38.815Z,100823.41
2022-10-23T07:59:37.222Z,100816.81
2022-10-23T08:02:15.364Z,100812.28
2022-10-23T08:04:43.607Z,100824.31
2022-10-23T08:07:21.273Z,100816.09
2022-10-23T08:09:54.458Z,100814.09
2022-10-23T08:12:21.629Z,100816.53
2022-10-23T08:14:48.934Z,100809.03
2022-10-23T08:17:17.445Z,100809.50
2022-10-23T08:20:11.292Z,100805.38
2022-10-23T08:22:42.738Z,100808.56
2022-10-23T08:25:11.396Z,100810.00
2022-10-23T08:27:39.092Z,100803.47
2022-10-23T08:30:07.517Z,100810.13
2022-10-23T08:32:34.672Z,100808.00
2022-10-23T08:35:03.433Z,100803.03
2022-10-23T08:37:32.619Z,100804.50
2022-10-23T08:40:00.288Z,100804.81
2022-10-23T08:42:58.986Z,100808.00
2022-10-23T08:45:42.871Z,100802.59
2022-10-23T08:48:39.193Z,100799.41
2022-10-23T08:51:39.932Z,100794.88
2022-10-23T08:54:26.966Z,100789.50
2022-10-23T08:57:18.098Z,100788.63
2022-10-23T08:59:59.178Z,100784.84
2022-10-23T09:02:27.446Z,100776.63
2022-10-23T09:04:58.666Z,100777.47
2022-10-23T09:07:53.180Z,100782.50
2022-10-23T09:11:10.597Z,100774.16
2022-10-23T09:14:13.896Z,100771.41
2022-10-23T09:17:23.005Z,100764.97
2022-10-23T09:20:41.165Z,100760.31
2022-10-23T09:23:24.296Z,100747.97
2022-10-23T09:25:57.018Z,100740.78
2022-10-23T09:28:48.406Z,100733.47
2022-10-23T09:31:19.595Z,100736.53
2022-10-23T09:34:01.628Z,100724.88
2022-10-23T09:36:29.841Z,100730.69
2022-10-23T09:39:00.552Z,100728.53
2022-10-23T09:41:43.114Z,100733.81
2022-10-23T09:44:33.505Z,100738.75
2022-10-23T09:47:06.721Z,100722.78
2022-10-23T09:49:35.272Z,100715.69
2022-10-23T09:52:08.134Z,100709.13
2022-10-23T09:54:59.059Z,100705.44
2022-10-23T09:57:43.290Z,100691.38
2022-10-23T10:00:26.900Z,100687.91
2022-10-23T10:03:06.949Z,100697.28
2022-10-23T10:05:43.932Z,100700.63
2022-10-23T10:08:58.434Z,100689.97
2022-10-23T10:11:43.390Z,100686.97
2022-10-23T10:14:35.140Z,100686.38
2022-10-23T10:17:49.649Z,100672.94
2022-10-23T10:20:40.363Z,100667.44
2022-10-23T10:23:55.770Z,100665.50
2022-10-23T10:26:52.721Z,100650.41
2022-10-23T10:30:10.651Z,100640.66
2022-10-23T10:32:53.997Z,100638.84
2022-10-23T10:35:56.837Z,100622.53
2022-10-23T10:38:51.608Z,100618.00
2022-10-23T10:42:10.984Z,100619.53
2022-10-23T10:45:17.631Z,100628.19
2022-10-23T10:48:23.625Z,100637.41
2022-10-23T10:51:51.527Z,100622.69
2022-10-23T10:55:14.157Z,100622.78
2022-10-23T10:58:17.410Z,100620.34
